Griffin, North Dakota
Current Conditions -  °F | °C
As of 11:53 PM on Sunday 23 Nov 2014 (Local Time) from KHEI Reporting Station
Overcast Overcast  
Wind Chill:   Ceiling: 1000
Heat Index: 18°   Visibility: 10mi
Dew Point: 14°   Wind: 15mph
Humidity: 84%   Direction: 330°NNW
Pressure: 29.74"   Gusts: NA
Location:  46.1126°N, 103.431°W
Report Text: KHEI 240653Z AUTO 33013KT 10SM OVC010 M08/M10 A2974 RMK AO2 SLP109 T10781100 400331083
Loading
Personal Weather Stations






























Interactive Weather Map New forecast layout! Learn more

10-Day Weather Forecast

Advertisements
Track Severe Weather on mobile